createdAt,value
2019-05-20T00:00:52.227Z,20.80
2019-05-20T00:03:21.192Z,21.13
2019-05-20T00:05:50.082Z,18.17
2019-05-20T00:08:18.978Z,21.23
2019-05-20T00:10:47.810Z,21.43
2019-05-20T00:13:16.817Z,23.10
2019-05-20T00:15:45.716Z,20.23
2019-05-20T00:18:14.569Z,19.33
2019-05-20T00:20:43.492Z,19.63
2019-05-20T00:23:12.443Z,19.60
2019-05-20T00:25:41.271Z,22.13
2019-05-20T00:28:10.128Z,19.40
2019-05-20T00:30:38.984Z,23.83
2019-05-20T00:33:07.871Z,26.17
2019-05-20T00:35:36.775Z,25.67
2019-05-20T00:38:05.665Z,25.77
2019-05-20T00:40:34.599Z,24.30
2019-05-20T00:43:03.503Z,25.00
2019-05-20T00:45:32.511Z,24.03
2019-05-20T00:48:01.339Z,25.27
2019-05-20T00:50:30.321Z,24.93
2019-05-20T00:52:59.331Z,24.47
2019-05-20T00:55:32.079Z,18.20
2019-05-20T00:58:01.735Z,19.67
2019-05-20T01:00:30.908Z,21.83
2019-05-20T01:02:59.815Z,22.67
2019-05-20T01:05:28.753Z,24.97
2019-05-20T01:07:57.655Z,21.07
2019-05-20T01:10:26.715Z,22.20
2019-05-20T01:12:55.649Z,24.03
2019-05-20T01:15:24.704Z,21.83
2019-05-20T01:17:53.675Z,22.83
2019-05-20T01:20:22.613Z,22.87
2019-05-20T01:22:51.596Z,25.03
2019-05-20T01:25:20.578Z,25.73
2019-05-20T01:27:49.467Z,18.20
2019-05-20T01:30:20.066Z,25.10
2019-05-20T01:32:48.959Z,24.63
2019-05-20T01:35:18.035Z,24.20
2019-05-20T01:37:46.848Z,22.33
2019-05-20T01:40:16.239Z,24.27
2019-05-20T01:42:45.138Z,25.37
2019-05-20T01:45:15.242Z,22.90
2019-05-20T01:47:44.134Z,21.47
2019-05-20T01:50:13.574Z,21.03
2019-05-20T01:52:42.412Z,26.10
2019-05-20T01:55:11.504Z,25.97
2019-05-20T01:57:40.383Z,22.87
2019-05-20T02:00:10.160Z,21.57
2019-05-20T02:02:39.051Z,20.70
2019-05-20T02:05:08.452Z,22.40
2019-05-20T02:07:37.367Z,30.23
2019-05-20T02:10:07.904Z,21.63
2019-05-20T02:12:36.858Z,24.83
2019-05-20T02:15:12.815Z,19.77
2019-05-20T02:17:41.751Z,21.30
2019-05-20T02:20:11.075Z,23.70
2019-05-20T02:22:40.011Z,26.97
2019-05-20T02:25:09.094Z,23.90
2019-05-20T02:27:37.995Z,29.77
2019-05-20T02:30:07.301Z,24.83
2019-05-20T02:32:36.276Z,26.47
2019-05-20T02:35:05.550Z,26.83
2019-05-20T02:37:34.456Z,29.20
2019-05-20T02:40:04.003Z,28.50
2019-05-20T02:42:32.903Z,27.00
2019-05-20T02:45:01.828Z,29.27
2019-05-20T02:47:30.719Z,28.17
2019-05-20T02:49:59.544Z,27.37
2019-05-20T02:52:28.459Z,26.80
2019-05-20T02:54:57.340Z,26.77
2019-05-20T02:57:26.265Z,28.17
2019-05-20T02:59:55.174Z,26.60
2019-05-20T03:02:24.085Z,29.67
2019-05-20T03:04:52.965Z,30.67
2019-05-20T03:07:21.808Z,28.10
2019-05-20T03:09:51.096Z,29.33
2019-05-20T03:12:19.923Z,29.50
2019-05-20T03:14:48.822Z,30.87
2019-05-20T03:17:17.646Z,31.70
2019-05-20T03:19:46.573Z,32.03
2019-05-20T03:22:15.547Z,40.20
2019-05-20T03:24:44.542Z,34.73
2019-05-20T03:27:13.529Z,33.47
2019-05-20T03:29:42.421Z,30.30
2019-05-20T03:32:11.480Z,27.17
2019-05-20T03:34:46.704Z,26.27
2019-05-20T03:37:10.993Z,27.03
2019-05-20T03:39:39.817Z,31.53
2019-05-20T03:42:08.670Z,34.60
2019-05-20T03:44:37.603Z,32.70
2019-05-20T03:47:06.656Z,32.23
2019-05-20T03:49:35.562Z,33.60
2019-05-20T03:52:04.449Z,32.97
2019-05-20T03:54:33.435Z,33.43
2019-05-20T03:57:02.338Z,36.57
2019-05-20T03:59:31.242Z,35.27
2019-05-20T04:02:00.137Z,34.63
2019-05-20T04:04:29.053Z,32.47
2019-05-20T04:06:57.949Z,27.73
2019-05-20T04:09:26.930Z,33.27
2019-05-20T04:11:55.832Z,27.13
2019-05-20T04:14:24.762Z,32.63
2019-05-20T04:16:53.686Z,34.83
2019-05-20T04:19:22.683Z,35.50
2019-05-20T04:21:51.491Z,34.33
2019-05-20T04:24:20.501Z,32.90
2019-05-20T04:26:53.173Z,40.17
2019-05-20T04:29:22.829Z,37.37
2019-05-20T04:31:51.820Z,33.20
2019-05-20T04:34:20.699Z,39.43
2019-05-20T04:36:49.672Z,45.67
2019-05-20T04:39:18.590Z,50.77
2019-05-20T04:41:47.463Z,56.23
2019-05-20T04:44:16.329Z,60.03
2019-05-20T04:46:45.255Z,64.27
2019-05-20T04:49:14.230Z,75.20
2019-05-20T04:51:43.114Z,62.43
2019-05-20T04:54:12.015Z,64.23
2019-05-20T04:56:40.919Z,64.83
2019-05-20T04:59:09.815Z,61.00
2019-05-20T05:01:38.703Z,62.17
2019-05-20T05:04:07.671Z,60.00
2019-05-20T05:06:36.680Z,67.37
2019-05-20T05:09:07.415Z,60.60
2019-05-20T05:11:36.376Z,64.73
2019-05-20T05:14:05.425Z,68.60
2019-05-20T05:16:34.314Z,84.73
2019-05-20T05:19:03.296Z,62.47
2019-05-20T05:21:32.257Z,76.07
2019-05-20T05:24:01.252Z,116.80
2019-05-20T05:26:30.150Z,93.47
2019-05-20T05:28:59.120Z,79.97
2019-05-20T05:31:27.950Z,91.13
2019-05-20T05:33:56.790Z,111.50
2019-05-20T05:36:25.823Z,79.10
2019-05-20T05:38:54.704Z,86.47
2019-05-20T05:41:23.536Z,91.07
2019-05-20T05:43:52.527Z,75.93
2019-05-20T05:46:21.446Z,77.47
2019-05-20T05:48:50.256Z,76.30
2019-05-20T05:51:19.173Z,74.77
2019-05-20T05:53:48.053Z,78.37
2019-05-20T05:56:17.059Z,70.33
2019-05-20T05:58:45.915Z,68.17
2019-05-20T06:01:14.924Z,72.27
2019-05-20T06:03:43.864Z,70.73
2019-05-20T06:06:13.542Z,67.33
2019-05-20T06:08:42.676Z,71.50
2019-05-20T06:11:11.721Z,68.23
2019-05-20T06:13:40.591Z,68.53
2019-05-20T06:16:09.434Z,68.87
2019-05-20T06:18:38.327Z,64.37
2019-05-20T06:21:07.311Z,60.83
2019-05-20T06:23:36.139Z,48.10
2019-05-20T06:26:05.115Z,51.30
2019-05-20T06:28:33.928Z,48.23
2019-05-20T06:31:02.769Z,45.27
2019-05-20T06:33:31.584Z,46.53
2019-05-20T06:36:00.575Z,44.87
2019-05-20T06:38:46.090Z,40.70
2019-05-20T06:41:15.152Z,44.40
2019-05-20T06:43:44.043Z,46.07
2019-05-20T06:46:13.063Z,48.60
2019-05-20T06:48:41.906Z,54.30
2019-05-20T06:51:10.951Z,43.03
2019-05-20T06:53:39.772Z,40.00
2019-05-20T06:56:08.603Z,44.70
2019-05-20T06:58:37.505Z,41.23
2019-05-20T07:01:06.488Z,43.40
2019-05-20T07:03:35.663Z,42.37
2019-05-20T07:06:04.752Z,41.47
2019-05-20T07:08:33.650Z,41.07
2019-05-20T07:11:02.548Z,38.73
2019-05-20T07:13:31.367Z,40.07
2019-05-20T07:16:00.278Z,47.63
2019-05-20T07:18:29.101Z,44.17
2019-05-20T07:20:57.969Z,43.50
2019-05-20T07:23:26.854Z,40.70
2019-05-20T07:25:55.764Z,41.83
2019-05-20T07:28:24.662Z,39.80
2019-05-20T07:30:53.547Z,38.03
2019-05-20T07:33:22.504Z,41.90
2019-05-20T07:35:51.484Z,51.23
2019-05-20T07:38:20.554Z,44.50
2019-05-20T07:40:49.454Z,44.10
2019-05-20T07:43:18.399Z,43.20
2019-05-20T07:45:47.665Z,44.17
2019-05-20T07:48:17.445Z,50.67
2019-05-20T07:50:47.398Z,45.47
2019-05-20T07:53:18.100Z,45.97
2019-05-20T07:55:54.003Z,43.27
2019-05-20T07:58:25.970Z,46.93
2019-05-20T08:00:54.887Z,52.23
2019-05-20T08:03:23.809Z,45.33
2019-05-20T08:05:52.701Z,44.13
2019-05-20T08:08:21.729Z,42.23
2019-05-20T08:10:50.643Z,43.87
2019-05-20T08:13:19.472Z,45.93
2019-05-20T08:15:48.471Z,41.50
2019-05-20T08:18:20.114Z,41.73
2019-05-20T08:20:48.065Z,45.03
2019-05-20T08:23:16.900Z,48.87
2019-05-20T08:25:45.871Z,50.20
2019-05-20T08:28:14.854Z,48.63
2019-05-20T08:30:43.758Z,48.53
2019-05-20T08:33:12.806Z,49.23
2019-05-20T08:35:41.708Z,47.17
2019-05-20T08:38:10.615Z,44.40
2019-05-20T08:40:40.331Z,44.13
2019-05-20T08:43:09.292Z,42.33
2019-05-20T08:45:38.343Z,41.27
2019-05-20T08:48:07.325Z,43.60
2019-05-20T08:50:36.322Z,41.53
2019-05-20T08:53:05.225Z,44.60
2019-05-20T08:55:34.252Z,40.87
2019-05-20T08:58:03.244Z,41.73
2019-05-20T09:00:32.132Z,42.13
2019-05-20T09:03:01.040Z,47.63
2019-05-20T09:05:29.958Z,46.47
2019-05-20T09:08:03.774Z,46.83
2019-05-20T09:10:29.420Z,44.00
2019-05-20T09:12:58.290Z,50.37
2019-05-20T09:15:27.250Z,50.13
2019-05-20T09:17:56.401Z,49.57
2019-05-20T09:20:25.508Z,52.73
2019-05-20T09:22:54.499Z,47.77
2019-05-20T09:25:30.725Z,55.03
2019-05-20T09:28:00.339Z,56.13
2019-05-20T09:30:29.407Z,53.73
2019-05-20T09:32:58.443Z,51.53
2019-05-20T09:35:27.441Z,51.63
2019-05-20T09:37:56.503Z,50.27
2019-05-20T09:40:37.301Z,47.77
2019-05-20T09:43:06.568Z,47.83
2019-05-20T09:45:35.720Z,47.43
2019-05-20T09:48:05.285Z,46.83
2019-05-20T09:50:34.252Z,46.80
2019-05-20T09:53:06.860Z,47.10
2019-05-20T09:55:33.968Z,45.40
2019-05-20T09:58:03.045Z,44.10
2019-05-20T10:00:32.071Z,44.20
2019-05-20T10:03:01.107Z,44.87
2019-05-20T10:05:30.296Z,45.70
2019-05-20T10:07:59.213Z,43.23
2019-05-20T10:10:28.248Z,39.47
2019-05-20T10:12:57.258Z,40.20
2019-05-20T10:15:26.609Z,39.53
2019-05-20T10:17:55.748Z,37.33
2019-05-20T10:20:24.667Z,39.20
2019-05-20T10:22:53.750Z,37.33
2019-05-20T10:25:22.987Z,37.47
2019-05-20T10:27:51.887Z,36.47
2019-05-20T10:30:24.011Z,36.43
2019-05-20T10:32:53.711Z,35.00
2019-05-20T10:35:22.671Z,35.37
2019-05-20T10:37:51.535Z,33.73
2019-05-20T10:40:20.589Z,32.20
2019-05-20T10:42:49.513Z,31.07
2019-05-20T10:45:18.747Z,32.20
2019-05-20T10:47:47.843Z,34.13
2019-05-20T10:50:16.972Z,33.42
2019-05-20T10:52:45.957Z,31.53
2019-05-20T10:55:16.484Z,31.23
2019-05-20T10:57:45.460Z,31.77
2019-05-20T11:00:15.957Z,31.83
2019-05-20T11:02:44.865Z,30.13
2019-05-20T11:05:14.455Z,32.75
2019-05-20T11:07:43.613Z,31.42
2019-05-20T11:10:12.713Z,31.30
2019-05-20T11:12:41.619Z,32.65
2019-05-20T11:15:10.996Z,32.10
2019-05-20T11:17:39.960Z,32.17
2019-05-20T11:20:10.828Z,32.60
2019-05-20T11:22:39.755Z,32.53
2019-05-20T11:25:08.888Z,32.90
2019-05-20T11:27:37.876Z,33.10
2019-05-20T11:30:07.758Z,33.50
2019-05-20T11:32:36.733Z,34.88
2019-05-20T11:35:06.329Z,35.13
2019-05-20T11:37:35.433Z,34.35
2019-05-20T11:40:05.990Z,33.67
2019-05-20T11:42:35.288Z,36.95
2019-05-20T11:45:04.332Z,35.40
2019-05-20T11:47:33.305Z,33.75
2019-05-20T11:50:02.864Z,35.43
2019-05-20T11:52:32.185Z,34.98
2019-05-20T11:55:01.055Z,35.50
2019-05-20T11:57:30.043Z,36.85
2019-05-20T11:59:58.908Z,36.68
2019-05-20T12:02:27.789Z,37.20
2019-05-20T12:05:16.096Z,37.55
2019-05-20T12:07:44.936Z,40.55
2019-05-20T12:10:15.436Z,36.05
2019-05-20T12:12:46.167Z,37.60
2019-05-20T12:15:15.482Z,37.17
2019-05-20T12:17:44.531Z,37.23
2019-05-20T12:20:13.885Z,43.65
2019-05-20T12:22:42.864Z,40.58
2019-05-20T12:25:12.067Z,36.93
2019-05-20T12:27:41.009Z,37.58
2019-05-20T12:30:10.586Z,41.77
2019-05-20T12:32:39.808Z,40.15
2019-05-20T12:35:08.924Z,41.02
2019-05-20T12:37:38.011Z,27.22
2019-05-20T12:40:08.322Z,29.25
2019-05-20T12:42:38.102Z,24.45
2019-05-20T12:45:07.266Z,25.57
2019-05-20T12:47:36.239Z,25.08
2019-05-20T12:50:05.646Z,25.20
2019-05-20T12:52:34.788Z,23.77
2019-05-20T12:55:08.406Z,24.82
2019-05-20T12:57:34.521Z,23.42
2019-05-20T13:00:03.643Z,24.30
2019-05-20T13:02:32.640Z,21.27
2019-05-20T13:05:01.676Z,24.92
2019-05-20T13:07:30.612Z,23.57
2019-05-20T13:10:02.777Z,21.17
2019-05-20T13:12:29.979Z,21.82
2019-05-20T13:14:58.880Z,21.62
2019-05-20T13:17:27.937Z,20.68
2019-05-20T13:19:56.848Z,22.02
2019-05-20T13:22:25.819Z,22.15
2019-05-20T13:24:54.719Z,22.35
2019-05-20T13:27:23.672Z,22.27
2019-05-20T13:29:52.501Z,23.05
2019-05-20T13:32:21.447Z,20.72
2019-05-20T13:34:50.291Z,23.50
2019-05-20T13:37:19.105Z,21.77
2019-05-20T13:39:48.018Z,22.87
2019-05-20T13:42:16.969Z,22.10
2019-05-20T13:44:45.899Z,19.62
2019-05-20T13:47:14.788Z,19.52
2019-05-20T13:49:43.711Z,19.60
2019-05-20T13:52:12.573Z,18.67
2019-05-20T13:54:41.521Z,19.37
2019-05-20T13:57:12.956Z,18.57
2019-05-20T13:59:40.988Z,19.35
2019-05-20T14:02:09.952Z,19.67
2019-05-20T14:04:38.876Z,18.48
2019-05-20T14:07:07.789Z,18.70
2019-05-20T14:09:36.701Z,18.23
2019-05-20T14:12:05.661Z,17.80
2019-05-20T14:14:34.563Z,16.95
2019-05-20T14:17:03.384Z,17.23
2019-05-20T14:19:32.282Z,16.32
2019-05-20T14:22:01.136Z,16.32
2019-05-20T14:24:30.297Z,14.00
2019-05-20T14:26:59.188Z,15.43
2019-05-20T14:29:28.014Z,14.13
2019-05-20T14:31:56.844Z,14.50
2019-05-20T14:34:25.744Z,14.68
2019-05-20T14:36:55.261Z,15.78
2019-05-20T14:39:24.156Z,15.48
2019-05-20T14:41:53.052Z,13.75
2019-05-20T14:44:21.945Z,13.88
2019-05-20T14:46:50.777Z,12.60
2019-05-20T14:49:19.760Z,13.28
2019-05-20T14:51:48.583Z,13.38
2019-05-20T14:54:17.503Z,13.60
2019-05-20T14:56:46.411Z,12.53
2019-05-20T14:59:15.339Z,12.07
2019-05-20T15:01:44.248Z,12.07
2019-05-20T15:04:13.165Z,11.30
2019-05-20T15:06:42.056Z,11.57
2019-05-20T15:09:30.314Z,11.48
2019-05-20T15:11:59.275Z,11.88
2019-05-20T15:14:28.111Z,11.63
2019-05-20T15:16:57.004Z,12.43
2019-05-20T15:19:25.860Z,11.75
2019-05-20T15:21:54.685Z,12.70
2019-05-20T15:24:23.583Z,12.65
2019-05-20T15:26:52.580Z,13.37
2019-05-20T15:29:27.986Z,12.90
2019-05-20T15:31:52.093Z,13.73
2019-05-20T15:34:21.049Z,13.47
2019-05-20T15:36:50.060Z,13.58
2019-05-20T15:39:19.014Z,13.83
2019-05-20T15:41:47.993Z,12.60
2019-05-20T15:44:16.967Z,13.18
2019-05-20T15:46:45.957Z,12.17
2019-05-20T15:49:14.841Z,11.80
2019-05-20T15:51:43.676Z,12.25
2019-05-20T15:54:12.498Z,11.57
2019-05-20T15:56:41.430Z,11.80
2019-05-20T15:59:17.249Z,11.57
2019-05-20T16:01:46.269Z,11.20
2019-05-20T16:04:15.259Z,11.07
2019-05-20T16:06:44.287Z,11.80
2019-05-20T16:09:17.085Z,12.93
2019-05-20T16:11:43.909Z,12.20
2019-05-20T16:14:12.793Z,12.37
2019-05-20T16:16:41.701Z,12.90
2019-05-20T16:19:10.651Z,12.93
2019-05-20T16:21:39.622Z,12.40
2019-05-20T16:24:08.629Z,13.40
2019-05-20T16:26:37.651Z,13.18
2019-05-20T16:29:25.737Z,12.43
2019-05-20T16:31:54.848Z,11.83
2019-05-20T16:34:25.124Z,12.20
2019-05-20T16:36:54.120Z,11.47
2019-05-20T16:39:23.114Z,11.97
2019-05-20T16:41:52.126Z,11.70
2019-05-20T16:44:21.223Z,11.50
2019-05-20T16:46:53.440Z,11.50
2019-05-20T16:49:22.463Z,11.43
2019-05-20T16:51:51.331Z,12.00
2019-05-20T16:54:20.332Z,12.05
2019-05-20T16:56:49.299Z,10.87
2019-05-20T16:59:18.222Z,11.10
2019-05-20T17:01:47.367Z,10.90
2019-05-20T17:04:16.394Z,10.93
2019-05-20T17:06:45.420Z,11.30
2019-05-20T17:09:14.387Z,12.40
2019-05-20T17:11:43.352Z,13.15
2019-05-20T17:14:12.223Z,14.13
2019-05-20T17:16:41.286Z,14.40
2019-05-20T17:19:10.434Z,13.67
2019-05-20T17:21:39.367Z,14.87
2019-05-20T17:24:08.499Z,16.52
2019-05-20T17:26:37.336Z,17.80
2019-05-20T17:29:06.478Z,18.13
2019-05-20T17:31:35.632Z,19.43
2019-05-20T17:34:04.793Z,20.43
2019-05-20T17:36:34.028Z,22.37
2019-05-20T17:39:03.043Z,22.40
2019-05-20T17:41:32.290Z,24.20
2019-05-20T17:44:01.291Z,25.30
2019-05-20T17:46:30.503Z,25.37
2019-05-20T17:48:59.508Z,26.20
2019-05-20T17:51:28.659Z,25.13
2019-05-20T17:53:57.708Z,28.90
2019-05-20T17:56:26.868Z,27.97
2019-05-20T17:58:55.770Z,28.17
2019-05-20T18:01:24.739Z,30.60
2019-05-20T18:03:53.690Z,28.87
2019-05-20T18:06:22.748Z,30.97
2019-05-20T18:08:54.039Z,30.63
2019-05-20T18:11:23.016Z,31.00
2019-05-20T18:13:52.100Z,28.90
2019-05-20T18:16:21.251Z,29.93
2019-05-20T18:18:50.386Z,31.93
2019-05-20T18:21:19.108Z,31.07
2019-05-20T18:23:48.554Z,29.80
2019-05-20T18:26:17.858Z,30.47
2019-05-20T18:28:47.402Z,29.97
2019-05-20T18:31:31.174Z,29.13
2019-05-20T18:33:47.671Z,29.47
2019-05-20T18:36:16.935Z,27.90
2019-05-20T18:38:49.228Z,29.00
2019-05-20T18:41:16.727Z,29.30
2019-05-20T18:43:45.733Z,28.40
2019-05-20T18:46:14.711Z,29.10
2019-05-20T18:48:43.704Z,30.27
2019-05-20T18:51:12.752Z,28.47
2019-05-20T18:53:41.921Z,27.87
2019-05-20T18:56:11.083Z,28.07
2019-05-20T18:58:40.175Z,26.90
2019-05-20T19:01:09.323Z,27.40
2019-05-20T19:03:38.881Z,26.80
2019-05-20T19:06:10.374Z,26.53
2019-05-20T19:08:50.179Z,27.10
2019-05-20T19:11:19.283Z,27.07
2019-05-20T19:13:48.265Z,33.20
2019-05-20T19:16:17.334Z,33.17
2019-05-20T19:18:46.399Z,32.87
2019-05-20T19:21:15.438Z,29.90
2019-05-20T19:23:44.407Z,30.93
2019-05-20T19:26:24.307Z,29.67
2019-05-20T19:28:44.514Z,29.73
2019-05-20T19:31:13.475Z,30.53
2019-05-20T19:33:43.399Z,35.07
2019-05-20T19:36:12.417Z,36.17
2019-05-20T19:38:41.489Z,38.23
2019-05-20T19:41:10.419Z,35.57
2019-05-20T19:43:39.350Z,34.43
2019-05-20T19:46:08.491Z,33.13
2019-05-20T19:48:37.848Z,36.37
2019-05-20T19:51:07.169Z,33.30
2019-05-20T19:53:36.429Z,35.77
2019-05-20T19:56:05.668Z,38.10
2019-05-20T19:58:34.713Z,39.03
2019-05-20T20:01:03.690Z,38.70
2019-05-20T20:03:32.699Z,38.13
2019-05-20T20:06:01.872Z,39.93
2019-05-20T20:08:30.839Z,38.70
2019-05-20T20:10:59.889Z,41.27
2019-05-20T20:13:28.836Z,38.77
2019-05-20T20:15:58.644Z,37.57
2019-05-20T20:18:27.980Z,38.87
2019-05-20T20:20:57.055Z,35.53
2019-05-20T20:23:25.949Z,35.10
2019-05-20T20:25:55.028Z,34.17
2019-05-20T20:28:24.084Z,33.87
2019-05-20T20:30:53.243Z,31.53
2019-05-20T20:33:22.197Z,34.13
2019-05-20T20:35:51.244Z,33.77
2019-05-20T20:38:20.306Z,33.73
2019-05-20T20:40:49.475Z,35.77
2019-05-20T20:43:18.361Z,34.63
2019-05-20T20:45:47.275Z,36.23
2019-05-20T20:48:16.206Z,33.60
2019-05-20T20:50:45.158Z,34.50
2019-05-20T20:53:14.130Z,34.37
2019-05-20T20:55:42.982Z,32.37
2019-05-20T20:58:11.871Z,34.43
2019-05-20T21:00:40.793Z,34.63
2019-05-20T21:03:09.681Z,33.83
2019-05-20T21:05:38.572Z,32.50
2019-05-20T21:08:07.480Z,34.80
2019-05-20T21:10:36.375Z,33.97
2019-05-20T21:13:05.336Z,34.40
2019-05-20T21:15:34.172Z,33.70
2019-05-20T21:18:02.983Z,31.90
2019-05-20T21:20:31.795Z,35.33
2019-05-20T21:23:00.623Z,33.63
2019-05-20T21:25:29.435Z,33.63
2019-05-20T21:27:58.327Z,36.60
2019-05-20T21:30:27.209Z,36.50
2019-05-20T21:33:08.342Z,42.37
2019-05-20T21:35:26.712Z,39.27
2019-05-20T21:37:55.606Z,39.47
2019-05-20T21:40:24.492Z,41.60
2019-05-20T21:42:53.321Z,39.07
2019-05-20T21:45:22.171Z,36.67
2019-05-20T21:47:51.056Z,37.73
2019-05-20T21:50:19.957Z,39.50
2019-05-20T21:52:48.855Z,40.07
2019-05-20T21:55:17.732Z,37.43
2019-05-20T21:57:46.630Z,42.67
2019-05-20T22:00:21.287Z,39.17
2019-05-20T22:02:50.304Z,40.77
2019-05-20T22:05:19.118Z,39.30
2019-05-20T22:07:48.047Z,42.80
2019-05-20T22:10:16.999Z,41.17
2019-05-20T22:12:45.828Z,43.60
2019-05-20T22:15:14.718Z,42.47
2019-05-20T22:17:43.615Z,42.17
2019-05-20T22:20:13.144Z,45.57
2019-05-20T22:22:49.811Z,41.80
2019-05-20T22:25:18.700Z,44.53
2019-05-20T22:27:47.573Z,45.97
2019-05-20T22:30:16.594Z,39.33
2019-05-20T22:32:45.432Z,41.27
2019-05-20T22:35:14.375Z,39.00
2019-05-20T22:37:43.199Z,41.07
2019-05-20T22:40:12.451Z,39.63
2019-05-20T22:42:41.348Z,43.30
2019-05-20T22:45:10.502Z,44.10
2019-05-20T22:47:39.340Z,42.30
2019-05-20T22:50:08.363Z,40.70
2019-05-20T22:52:37.184Z,40.97
2019-05-20T22:55:06.091Z,41.83
2019-05-20T22:57:34.900Z,40.73
2019-05-20T23:00:04.078Z,43.47
2019-05-20T23:02:32.955Z,43.37
2019-05-20T23:05:01.798Z,44.83
2019-05-20T23:07:30.680Z,51.90
2019-05-20T23:09:59.501Z,46.17
2019-05-20T23:12:28.421Z,43.60
2019-05-20T23:14:57.301Z,43.67
2019-05-20T23:17:26.113Z,46.27
2019-05-20T23:19:54.944Z,46.47
2019-05-20T23:22:23.767Z,43.63
2019-05-20T23:24:52.608Z,45.13
2019-05-20T23:27:21.500Z,45.47
2019-05-20T23:29:50.396Z,43.67
2019-05-20T23:32:19.307Z,43.87
2019-05-20T23:34:48.248Z,43.67
2019-05-20T23:37:17.123Z,47.33
2019-05-20T23:39:46.149Z,43.80
2019-05-20T23:42:15.080Z,44.97
2019-05-20T23:44:44.006Z,45.87
2019-05-20T23:47:12.903Z,41.90
2019-05-20T23:49:41.878Z,41.57
2019-05-20T23:52:10.755Z,46.33
2019-05-20T23:54:39.586Z,45.60
2019-05-20T23:57:08.404Z,45.37
2019-05-20T23:59:37.296Z,45.80
